• Join FlightAware (Why Join?)
  • Login
  • US Flag 
12:12PM EDT


 

Airport Tracker/Info


-or-


 

Live Flight TrackerFlight Track Log ✈ SWA1761 ✈ 05-Oct-2013 ✈ KABQ - KHOU

Flight Track Log - Related Links

Times and Time Zones

All times are in EDT time to prevent confusion due to time zone crossing. See the SWA1761 flight status page for this flight to view local times or setup timezone preferences in your user account.

Time Position Orientation Groundspeed Altitude Reporting Facility
EDT Latitude Longitude Course Direction KTS MPH feet Rate Location/Type
04:37PM 34.9658 -106.5139 145° Southeast 274 315 8,600  Level Albuquerque Center
04:38PM 34.9467 -106.5150 183° South 263 303 9,000 1,800 Climbing Albuquerque Center
04:38PM 34.8858 -106.5192 183° South 300 345 10,400 2,220 Climbing Albuquerque Center
04:39PM 34.8656 -106.5175 176° South 290 334 11,300 3,060 Climbing Albuquerque Center
04:39PM 34.8408 -106.5178 181° South 307 353 12,300 3,060 Climbing Albuquerque Center
04:40PM 34.7894 -106.4797 149° Southeast 313 360 14,500 2,280 Climbing Albuquerque Center
04:41PM 34.7506 -106.3717 114° Southeast 349 402 16,600 2,340 Climbing Albuquerque Center
04:42PM 34.6950 -106.2256 115° Southeast 396 456 19,300 2,760 Climbing Albuquerque Center
04:43PM 34.6444 -106.0894 114° Southeast 421 484 22,300 2,580 Climbing Albuquerque Center
04:44PM 34.5933 -105.9622 116° Southeast 421 484 24,700 2,160 Climbing Albuquerque Center
04:45PM 34.5075 -105.8611 136° Southeast 427 491 26,800 1,860 Climbing Albuquerque Center
04:46PM 34.4139 -105.7592 138° Southeast 441 507 28,600 1,560 Climbing Albuquerque Center
04:47PM 34.3183 -105.6542 138° Southeast 455 524 30,100 1,200 Climbing Albuquerque Center
04:48PM 34.2167 -105.5464 139° Southeast 474 545 31,100 1,020 Climbing Albuquerque Center
04:49PM 34.1111 -105.4339 139° Southeast 494 568 32,300 1,860 Climbing Albuquerque Center
04:50PM 33.9894 -105.3033 138° Southeast 498 573 35,000 2,160 Climbing Albuquerque Center
04:51PM 33.8900 -105.2019 140° Southeast 479 551 36,800 1,260 Climbing Albuquerque Center
04:52PM 33.7922 -105.0978 138° Southeast 471 542 37,700 780 Climbing Albuquerque Center
04:53PM 33.6839 -104.9831 139° Southeast 481 554 38,400 600 Climbing Albuquerque Center
04:54PM 33.5828 -104.8772 139° Southeast 482 555 39,000 240 Climbing Albuquerque Center
04:55PM 33.4819 -104.7731 139° Southeast 480 552 39,000  Level Albuquerque Center
04:56PM 33.3742 -104.6617 139° Southeast 477 549 39,000  Level Albuquerque Center
04:57PM 33.2739 -104.5614 140° Southeast 476 548 39,000  Level Albuquerque Center
04:58PM 33.1614 -104.4528 141° Southeast 496 571 39,000  Level Albuquerque Center
04:59PM 33.0792 -104.3256 128° Southeast 502 578 39,000  Level Albuquerque Center
05:00PM 33.0181 -104.1581 113° Southeast 514 592 39,000  Level Albuquerque Center
05:01PM 32.9589 -104.0036 115° Southeast 514 592 39,000  Level Albuquerque Center
05:02PM 32.8994 -103.8489 115° Southeast 515 593 39,000  Level Albuquerque Center
05:03PM 32.8419 -103.7008 115° Southeast 512 589 39,000  Level Albuquerque Center
05:04PM 32.7831 -103.5500 115° Southeast 505 581 39,000  Level Albuquerque Center
05:05PM 32.7253 -103.3983 114° Southeast 505 581 39,000  Level Albuquerque Center
05:06PM 32.6603 -103.2439 117° Southeast 495 570 39,000  Level Fort Worth Center
05:07PM 32.6022 -103.0947 115° Southeast 495 570 39,000  Level Fort Worth Center
05:08PM 32.5422 -102.9431 115° Southeast 495 570 39,000  Level Fort Worth Center
05:09PM 32.4822 -102.7917 115° Southeast 495 570 39,000  Level Fort Worth Center
05:10PM 32.4142 -102.6228 115° Southeast 500 575 39,000  Level Fort Worth Center
05:11PM 32.3494 -102.4714 117° Southeast 505 581 39,000  Level Fort Worth Center
05:12PM 32.2908 -102.3183 114° Southeast 505 581 39,000  Level Fort Worth Center
05:13PM 32.2317 -102.1703 115° Southeast 505 581 39,000  Level Fort Worth Center
05:14PM 32.1706 -102.0175 115° Southeast 505 581 39,000  Level Fort Worth Center
05:15PM 32.1133 -101.8722 115° Southeast 500 575 39,000  Level Fort Worth Center
05:16PM 32.0539 -101.7197 115° Southeast 500 575 39,000  Level Fort Worth Center
05:17PM 31.9922 -101.5700 116° Southeast 500 575 39,000  Level Fort Worth Center
05:18PM 31.9322 -101.4253 116° Southeast 493 567 39,000  Level Fort Worth Center
05:19PM 31.8700 -101.2783 116° Southeast 498 573 39,000  Level Fort Worth Center
05:20PM 31.8075 -101.1289 116° Southeast 498 573 39,000  Level Fort Worth Center
05:21PM 31.7569 -101.0025 115° Southeast 492 566 39,000  Level Fort Worth Center
05:22PM 31.6922 -100.8558 117° Southeast 492 566 39,000  Level Fort Worth Center
05:23PM 31.6314 -100.7119 116° Southeast 498 573 39,000  Level Fort Worth Center
05:24PM 31.5694 -100.5683 117° Southeast 497 572 39,000  Level Houston Center
05:25PM 31.5078 -100.4239 117° Southeast 496 571 39,000  Level Houston Center
05:26PM 31.4467 -100.2786 116° Southeast 498 573 39,000  Level Houston Center
05:27PM 31.3856 -100.1344 116° Southeast 495 570 39,000  Level Houston Center
05:28PM 31.3222 -99.9906 117° Southeast 497 572 39,000  Level Houston Center
05:29PM 31.2614 -99.8467 116° Southeast 493 567 39,000  Level Houston Center
05:31PM 31.1864 -99.6744 117° Southeast 495 570 39,000  Level Houston Center
05:32PM 31.1247 -99.5331 117° Southeast 490 564 39,000  Level Houston Center
05:33PM 31.0628 -99.3903 117° Southeast 491 565 39,000  Level Houston Center
05:34PM 31.0167 -99.2439 110° East 486 559 39,000  Level Houston Center
05:35PM 30.9908 -99.0842 101° East 495 570 39,000  Level Houston Center
05:36PM 30.9664 -98.9269 100° East 491 565 39,000  Level Houston Center
05:37PM 30.9406 -98.7686 101° East 493 567 39,000  Level Houston Center
05:38PM 30.9139 -98.6103 101° East 494 568 39,000  Level Houston Center
05:39PM 30.8889 -98.4508 100° East 496 571 39,000  Level Houston Center
05:40PM 30.8586 -98.2664 101° East 495 570 39,000  Level Houston Center
05:41PM 30.8317 -98.1092 101° East 492 566 39,000  Level Houston Center
05:42PM 30.8058 -97.9531 101° East 489 563 39,000 -60 Level Houston Center
05:43PM 30.7794 -97.7972 101° East 489 563 38,900 -840 Descending Houston Center
05:44PM 30.7533 -97.6428 101° East 486 559 37,300 -1,380 Descending Houston Center
05:45PM 30.7269 -97.4897 101° East 484 557 36,100 -2,160 Descending Houston Center
05:46PM 30.6986 -97.3344 102° East 491 565 32,900 -2,760 Descending Houston Center
05:47PM 30.6681 -97.1792 103° East 495 570 30,400 -2,820 Descending Houston Center
05:48PM 30.5986 -97.0250 118° Southeast 462 532 27,200 -2,940 Descending Houston Center
05:49PM 30.5381 -96.8964 119° Southeast 453 521 24,400 -2,520 Descending Houston Center
05:50PM 30.4778 -96.7747 120° Southeast 437 503 22,100 -2,220 Descending Houston Center
05:51PM 30.4211 -96.6553 119° Southeast 425 489 19,900 -2,220 Descending Houston Center
05:52PM 30.3669 -96.5400 119° Southeast 409 471 17,600 -2,280 Descending Houston Center
05:53PM 30.3133 -96.4286 119° Southeast 396 456 15,300 -2,280 Descending Houston Center
05:53PM 30.3022 -96.4075 121° Southeast 395 455 15,000 -2,340 Descending Houston Center
05:54PM 30.2744 -96.3503 119° Southeast 385 443 13,800 -2,160 Descending Houston Center
05:54PM 30.2603 -96.3189 118° Southeast 389 448 13,100 -2,220 Descending Houston Center
05:55PM 30.2261 -96.2494 120° Southeast 381 438 11,800 -2,040 Descending Houston Center
05:55PM 30.2097 -96.2136 118° Southeast 377 434 11,000 -720 Descending Houston Center
05:56PM 30.1531 -96.1778 151° Southeast 332 382 11,100 -120 Climbing Houston Center
05:56PM 30.1233 -96.1633 157° South 341 392 10,900  Descending Houston Center
05:57PM 30.0750 -96.1264 147° Southeast 334 384 11,100  Climbing Houston Center
05:57PM 30.0503 -96.1000 137° Southeast 337 388 10,900  Descending Houston Center
05:58PM 30.0014 -96.0503 139° Southeast 335 386 11,100  Climbing Houston Center
05:58PM 29.9800 -96.0289 139° Southeast 336 387 10,900  Descending Houston Center
05:59PM 29.9322 -95.9786 138° Southeast 334 384 11,100 -120 Climbing Houston Center
05:59PM 29.9111 -95.9569 138° Southeast 334 384 10,800 -1,140 Descending Houston Center
06:00PM 29.8803 -95.8883 117° Southeast 341 392 10,000 -840 Descending Houston Center
06:00PM 29.8567 -95.8436 121° Southeast 337 388 10,000  Level Houston Center
06:01PM 29.8394 -95.8061 118° Southeast 330 380 10,000  Level Houston Center
06:01PM 29.8133 -95.7517 119° Southeast 330 380 10,000  Level Houston Center
06:02PM 29.7906 -95.7036 119° Southeast 330 380 10,000 -120 Level Houston Center
06:02PM 29.7678 -95.6606 121° Southeast 329 379 9,900 -540 Descending Houston Center
06:03PM 29.7447 -95.6128 119° Southeast 303 349 9,500 -1,020 Descending Houston Center
06:03PM 29.7269 -95.5764 119° Southeast 314 361 8,900 -1,380 Descending Houston Center
06:04PM 29.7036 -95.5286 119° Southeast 293 337 8,100 -1,320 Descending Houston Center
06:04PM 29.6867 -95.4961 121° Southeast 294 338 7,600 -1,260 Descending Houston Center
06:05PM 29.6647 -95.4492 118° Southeast 279 321 6,800 -1,380 Descending Houston Center
06:05PM 29.6489 -95.4200 122° Southeast 280 322 6,200 -1,620 Descending Houston Center
06:06PM 29.6203 -95.3750 126° Southeast 278 320 5,200 -1,620 Descending Houston Center
06:06PM 29.6011 -95.3508 132° Southeast 281 323 4,600 -1,380 Descending Houston Center
06:07PM 29.5658 -95.3094 134° Southeast 275 316 3,800 -1,080 Descending Houston Center
06:07PM 29.5386 -95.2794 136° Southeast 270 311 3,500 -900 Descending Houston Center
06:08PM 29.5267 -95.2494 115° Southeast 227 261 2,900 -1,200 Descending Houston Center
06:08PM 29.5431 -95.2192 58° Northeast 230 265 2,300 -1,020 Descending Houston Center
06:09PM 29.5628 -95.2067 29° Northeast 191 220 2,000 -1,020 Descending Houston Center
06:09PM 29.5892 -95.2158 343° North 201 231 1,300 -1,020 Descending Houston Center
06:10PM 29.6025 -95.2283 321° Northwest 153 176 1,000 -840 Descending Houston Center
06:11PM 29.6206 -95.2497 314° West 171 197 500 -840 Descending Houston Center
06:11PM 29.6308 -95.2633 311° West 135 155 200 -420 Descending Houston Center
06:12PM 29.6511 -95.2861 316° Northwest 156 180 100 -180 Descending Houston Center